< < Back
Terminal Aerodrome Forecast


Current Version              Previous Versions:   1  2  3  4  5  6  7  8  9  

Terminal Aerodrome Forecast

632
FTUS42 KJAX 010500 RRA
TAFJAX
TAF
KJAX 010544Z 0106/0206 VRB04KT P6SM FEW020 SCT060
     FM011800 12008KT P6SM VCSH SCT035 BKN250
     FM020000 15005KT P6SM FEW040 BKN250=



Latest METAR

371
SAUS80 KWBC 012100 RRI
MTRJAX
METAR KJAX 012056Z 16007KT 10SM FEW042 FEW090 BKN250 32/23 A3003 RMK AO2
SLP170 T03220233 58021


USA.gov is the U.S. government's official web portal to all federal, state and local government web resources and services.